This is the latest recevied weather packets stored in our database for station/object N6GPM. If no packets are shown the sender has not sent any weather packets the latest 10 day(s).
| Time | Temp. | Humidity | Pressure | Rain* | Wind** | Luminosity | Snow |
|---|---|---|---|---|---|---|---|
| 1777959166 | 11.67° C | 81% | 1018.1 hPa | 0 mm | - | 0 W/m² | - |
| 1777958863 | 11.67° C | 81% | 1018.4 hPa | 0 mm | - | 0 W/m² | - |
| 1777958560 | 11.67° C | 81% | 1018.2 hPa | 0 mm | - | 0 W/m² | - |
| 1777958257 | 12.22° C | 81% | 1018.3 hPa | 0 mm | - | 0 W/m² | - |
| 1777957955 | 12.22° C | 81% | 1018.1 hPa | 0 mm | - | 0 W/m² | - |
| 1777957653 | 12.22° C | 80% | 1018.3 hPa | 0 mm | - | 0 W/m² | - |
| 1777957351 | 12.22° C | 80% | 1018.3 hPa | 0 mm | - | 0 W/m² | - |
| 1777957046 | 12.22° C | 80% | 1018.2 hPa | 0 mm | - | 0 W/m² | - |
| 1777956744 | 12.22° C | 80% | 1018.3 hPa | 0 mm | - | 0 W/m² | - |
| 1777956440 | 12.22° C | 80% | 1018.2 hPa | 0 mm | - | 0 W/m² | - |
| 1777956137 | 12.22° C | 80% | 1018.3 hPa | 0 mm | - | 0 W/m² | - |
| 1777955834 | 12.22° C | 80% | 1018.2 hPa | 0 mm | - | 0 W/m² | - |
| 1777955530 | 12.22° C | 79% | 1018.2 hPa | 0 mm | - | 0 W/m² | - |
| 1777955226 | 12.78° C | 79% | 1018.2 hPa | 0 mm | - | 0 W/m² | - |
| 1777954924 | 12.78° C | 79% | 1018.3 hPa | 0 mm | - | 0 W/m² | - |
| 1777954621 | 12.78° C | 78% | 1018.2 hPa | 0 mm | - | 0 W/m² | - |
| 1777954318 | 12.78° C | 78% | 1018.1 hPa | 0 mm | - | 0 W/m² | - |
| 1777953712 | 12.78° C | 77% | 1018 hPa | 0 mm | - | 0 W/m² | - |
| 1777953408 | 12.78° C | 76% | 1017.9 hPa | 0 mm | - | 0 W/m² | - |
| 1777943714 | 15° C | 68% | 1017.7 hPa | 0 mm | - | 58 W/m² | - |
| 1777943412 | 15° C | 67% | 1017.6 hPa | 0 mm | - | 69 W/m² | - |
| 1777943107 | 15° C | 67% | 1017.4 hPa | 0 mm | - | 86 W/m² | - |
| 1777941895 | 16.11° C | 63% | 1017.6 hPa | 0 mm | - | 88 W/m² | - |
| 1777940379 | 16.67° C | 61% | 1017.5 hPa | 0 mm | - | 134 W/m² | - |
| 1777940077 | 16.67° C | 61% | 1017.7 hPa | 0 mm | - | 168 W/m² | - |
* Rain latest hour (hover to see other rain measurements)
** Current wind speed in m/s (hover to see current wind gust speed)